Time;durP1;ratioP1;P1;durP2;ratioP2;P2;SDS_P1;SDS_P2;PMS_P1;PMS_P2;Temp;Humidity;BMP_temperature;BMP_pressure;BME280_temperature;BME280_humidity;BME280_pressure;Samples;Min_cycle;Max_cycle;Signal;HPM_P1;HPM_P2
2024/01/08 00:02:42;;;;;;;1.80;1.60;;;7.20;75.00;;;;;;6271401;28;20428;-78
2024/01/08 00:05:45;;;;;;;3.58;1.58;;;7.20;74.80;;;;;;6266994;28;20052;-77
2024/01/08 00:08:46;;;;;;;2.08;1.48;;;7.20;74.60;;;;;;6246258;28;20025;-77
2024/01/08 00:11:46;;;;;;;2.58;1.55;;;7.40;74.80;;;;;;6265093;28;20013;-77
2024/01/08 00:14:53;;;;;;;3.83;1.92;;;7.20;74.40;;;;;;6268615;28;20461;-77
2024/01/08 00:17:57;;;;;;;3.38;1.85;;;7.30;74.60;;;;;;6251687;28;20040;-78
2024/01/08 00:20:59;;;;;;;3.53;1.98;;;7.30;74.60;;;;;;6261312;28;20052;-78
2024/01/08 00:24:00;;;;;;;2.10;1.55;;;7.30;74.40;;;;;;6270133;28;20023;-78
2024/01/08 00:27:01;;;;;;;3.13;1.83;;;7.30;74.20;;;;;;6258473;28;20033;-77
2024/01/08 00:30:02;;;;;;;3.88;1.90;;;7.30;74.30;;;;;;6273816;28;20035;-77
2024/01/08 00:33:05;;;;;;;3.25;2.00;;;7.30;74.30;;;;;;6275416;28;20373;-78
2024/01/08 00:36:06;;;;;;;1.65;1.55;;;7.30;73.70;;;;;;6281891;28;20028;-77
2024/01/08 00:39:10;;;;;;;3.85;2.65;;;7.30;73.40;;;;;;6271281;28;20095;-77
2024/01/08 00:42:12;;;;;;;5.13;2.25;;;7.40;73.80;;;;;;6266353;28;20032;-77
2024/01/08 00:45:16;;;;;;;3.20;1.35;;;7.40;73.30;;;;;;6254154;28;20136;-77
2024/01/08 00:48:17;;;;;;;5.53;1.75;;;7.40;73.30;;;;;;6282062;28;20063;-77
2024/01/08 00:51:18;;;;;;;1.70;1.08;;;7.30;73.10;;;;;;6275182;28;20048;-78
2024/01/08 00:54:20;;;;;;;2.53;1.50;;;7.40;73.60;;;;;;6273751;28;20036;-79
2024/01/08 00:57:22;;;;;;;2.60;1.75;;;7.30;72.90;;;;;;6270701;28;20021;-79
2024/01/08 01:00:23;;;;;;;4.85;1.83;;;7.40;72.90;;;;;;6271195;28;20128;-78
2024/01/08 01:03:25;;;;;;;1.58;1.23;;;7.40;72.80;;;;;;6258625;28;20023;-77
2024/01/08 01:06:26;;;;;;;1.55;1.38;;;7.40;72.90;;;;;;6284355;28;20093;-77
2024/01/08 01:09:27;;;;;;;3.13;1.73;;;7.40;72.60;;;;;;6247959;28;20119;-78
2024/01/08 01:12:28;;;;;;;5.13;2.25;;;7.40;72.60;;;;;;6256379;28;20510;-78
2024/01/08 01:15:30;;;;;;;1.65;1.30;;;7.40;72.50;;;;;;6274214;28;20020;-78
2024/01/08 01:18:30;;;;;;;3.22;2.05;;;7.40;72.30;;;;;;6269293;28;20052;-77
2024/01/08 01:21:32;;;;;;;3.63;2.17;;;7.50;72.10;;;;;;6305456;28;20468;-77
2024/01/08 01:24:33;;;;;;;2.78;1.70;;;7.40;72.20;;;;;;6293007;28;20158;-78
2024/01/08 01:27:34;;;;;;;2.80;1.90;;;7.40;72.30;;;;;;6279052;28;20469;-79
2024/01/08 01:30:39;;;;;;;2.35;1.42;;;7.40;72.10;;;;;;6272568;28;20036;-80
2024/01/08 01:33:40;;;;;;;1.15;1.02;;;7.40;72.40;;;;;;6253126;28;20021;-77
2024/01/08 01:36:41;;;;;;;2.58;1.67;;;7.40;71.90;;;;;;6273347;28;20032;-77
2024/01/08 01:39:42;;;;;;;4.13;1.98;;;7.40;71.80;;;;;;6263575;28;20032;-79
2024/01/08 01:42:43;;;;;;;2.78;1.35;;;7.50;72.20;;;;;;6254949;28;20106;-78
2024/01/08 01:45:43;;;;;;;2.67;1.63;;;7.40;71.90;;;;;;6252715;28;20025;-77
2024/01/08 01:48:46;;;;;;;1.95;1.38;;;7.50;71.70;;;;;;6273056;28;20524;-77
2024/01/08 01:51:49;;;;;;;2.33;1.55;;;7.50;71.30;;;;;;6268727;28;20555;-78
2024/01/08 01:54:51;;;;;;;1.35;1.10;;;7.40;71.50;;;;;;6274132;28;20532;-78
2024/01/08 01:57:53;;;;;;;2.58;1.27;;;7.50;71.60;;;;;;6274284;28;20051;-78
2024/01/08 02:00:54;;;;;;;2.08;1.30;;;7.50;71.70;;;;;;6269386;28;20028;-77
2024/01/08 02:03:55;;;;;;;1.52;1.30;;;7.40;71.30;;;;;;6271128;28;20577;-78
2024/01/08 02:06:56;;;;;;;2.63;1.42;;;7.40;71.40;;;;;;6276272;28;20036;-78
2024/01/08 02:09:58;;;;;;;2.75;1.77;;;7.40;71.70;;;;;;6275367;28;20048;-77
2024/01/08 02:13:00;;;;;;;2.20;1.17;;;7.40;71.60;;;;;;6255902;28;20098;-79
2024/01/08 02:16:01;;;;;;;1.85;1.23;;;7.30;71.60;;;;;;6274276;28;20081;-77
2024/01/08 02:19:04;;;;;;;1.55;1.08;;;7.30;71.90;;;;;;6268635;28;20029;-78
2024/01/08 02:22:05;;;;;;;1.63;1.42;;;7.30;72.20;;;;;;6268591;28;20028;-77
2024/01/08 02:25:07;;;;;;;2.55;1.45;;;7.30;72.80;;;;;;6270132;28;20075;-77
2024/01/08 02:28:08;;;;;;;1.95;1.38;;;7.30;73.50;;;;;;6279568;28;20025;-76
2024/01/08 02:31:10;;;;;;;1.58;1.10;;;7.40;72.80;;;;;;6274171;28;20017;-77
2024/01/08 02:34:11;;;;;;;3.33;0.98;;;7.40;72.40;;;;;;6270702;28;20021;-77
2024/01/08 02:37:12;;;;;;;3.70;2.35;;;7.50;72.00;;;;;;6250407;28;20511;-77
2024/01/08 02:40:14;;;;;;;2.42;1.38;;;7.40;71.00;;;;;;6248298;28;20049;-78
2024/01/08 02:43:17;;;;;;;2.35;1.50;;;7.50;70.90;;;;;;6259483;28;20036;-78
2024/01/08 02:46:18;;;;;;;3.28;1.48;;;7.40;71.20;;;;;;6262710;28;20049;-77
2024/01/08 02:49:20;;;;;;;3.67;1.70;;;7.40;70.90;;;;;;6254343;28;20020;-77
2024/01/08 02:52:20;;;;;;;3.03;1.90;;;7.40;70.70;;;;;;6303470;28;20025;-76
2024/01/08 02:55:22;;;;;;;2.28;1.73;;;7.30;70.70;;;;;;6273513;28;20715;-76
2024/01/08 02:58:23;;;;;;;4.45;2.17;;;7.30;70.90;;;;;;6304609;28;20021;-77
2024/01/08 03:01:30;;;;;;;3.03;1.90;;;7.30;70.90;;;;;;6271725;28;20147;-78
2024/01/08 03:04:34;;;;;;;3.20;2.10;;;7.40;71.50;;;;;;6269073;28;20036;-77
2024/01/08 03:07:35;;;;;;;4.05;1.58;;;7.40;71.00;;;;;;6255938;28;20111;-78
2024/01/08 03:10:37;;;;;;;3.42;1.65;;;7.40;70.90;;;;;;6274721;28;20056;-78
2024/01/08 03:13:38;;;;;;;3.47;1.80;;;7.40;70.90;;;;;;6251721;28;20035;-77
2024/01/08 03:16:39;;;;;;;4.30;2.00;;;7.40;71.10;;;;;;6278820;28;20016;-77
2024/01/08 03:19:41;;;;;;;3.20;2.15;;;7.40;70.80;;;;;;6260321;28;20362;-77
2024/01/08 03:22:42;;;;;;;1.88;1.40;;;7.40;70.90;;;;;;6267351;28;20084;-78
2024/01/08 03:25:44;;;;;;;4.47;2.03;;;7.30;70.90;;;;;;6267451;28;20112;-77
2024/01/08 03:28:46;;;;;;;2.38;1.70;;;7.20;71.00;;;;;;6269968;28;20028;-77
2024/01/08 03:31:47;;;;;;;2.00;1.65;;;7.20;70.70;;;;;;6266867;28;20106;-79
2024/01/08 03:34:50;;;;;;;3.25;2.00;;;7.20;70.40;;;;;;6271054;28;20060;-79
2024/01/08 03:37:51;;;;;;;5.50;2.95;;;7.10;70.70;;;;;;6251605;28;20020;-77
2024/01/08 03:40:53;;;;;;;3.80;1.70;;;7.10;70.70;;;;;;6274083;28;20032;-77
2024/01/08 03:43:55;;;;;;;3.25;1.90;;;7.00;71.10;;;;;;6269092;28;20462;-77
2024/01/08 03:46:57;;;;;;;4.60;2.17;;;7.00;71.70;;;;;;6271160;28;20118;-77
2024/01/08 03:49:59;;;;;;;2.88;1.80;;;7.00;72.10;;;;;;6274103;28;20263;-78
2024/01/08 03:53:00;;;;;;;4.55;2.47;;;7.00;71.90;;;;;;6275011;28;20021;-77
2024/01/08 03:56:02;;;;;;;5.43;1.48;;;7.00;71.70;;;;;;6276467;28;20024;-77
2024/01/08 03:59:03;;;;;;;2.88;2.13;;;7.00;71.90;;;;;;6275280;28;20070;-78
2024/01/08 04:02:07;;;;;;;2.03;1.83;;;7.00;72.10;;;;;;6272661;28;20045;-77
2024/01/08 04:05:11;;;;;;;3.35;2.20;;;7.00;71.50;;;;;;6271655;28;20541;-78
2024/01/08 04:08:12;;;;;;;2.83;2.08;;;6.90;71.80;;;;;;6269396;28;20488;-76
2024/01/08 04:11:14;;;;;;;3.00;2.22;;;6.90;72.10;;;;;;6270161;28;20009;-77
2024/01/08 04:14:15;;;;;;;2.67;1.52;;;7.00;71.80;;;;;;6250460;28;20500;-78
2024/01/08 04:17:16;;;;;;;4.05;2.45;;;6.90;72.10;;;;;;6273745;28;20036;-77
2024/01/08 04:20:17;;;;;;;2.17;1.52;;;6.90;72.30;;;;;;6266350;28;20438;-77
2024/01/08 04:23:19;;;;;;;1.35;1.25;;;6.90;72.30;;;;;;6276159;28;20387;-77
2024/01/08 04:26:25;;;;;;;3.03;1.65;;;6.80;72.00;;;;;;6269637;28;20048;-79
2024/01/08 04:29:26;;;;;;;3.13;1.48;;;6.80;72.10;;;;;;6278488;28;20031;-77
2024/01/08 04:32:27;;;;;;;1.98;1.40;;;6.60;72.30;;;;;;6269214;28;20017;-77
2024/01/08 04:35:29;;;;;;;2.22;1.25;;;6.60;72.90;;;;;;6277044;28;20017;-78
2024/01/08 04:38:29;;;;;;;3.25;1.55;;;6.50;73.00;;;;;;6263225;28;20111;-78
2024/01/08 04:41:32;;;;;;;2.28;1.42;;;6.40;72.80;;;;;;6265967;28;20100;-77
2024/01/08 04:44:33;;;;;;;1.92;1.80;;;6.30;74.00;;;;;;6254767;28;20025;-78
2024/01/08 04:47:34;;;;;;;2.05;0.85;;;6.20;73.70;;;;;;6269356;28;20163;-79
2024/01/08 04:50:36;;;;;;;2.03;1.33;;;6.30;74.20;;;;;;6274972;28;20055;-77
2024/01/08 04:53:36;;;;;;;1.85;1.20;;;6.20;74.20;;;;;;6270704;28;20460;-76
2024/01/08 04:56:40;;;;;;;2.78;1.73;;;6.20;74.30;;;;;;6272597;28;20028;-77
2024/01/08 04:59:42;;;;;;;6.93;2.42;;;6.20;74.40;;;;;;6305555;28;20072;-76
2024/01/08 05:02:43;;;;;;;3.13;1.70;;;6.20;74.40;;;;;;6268717;28;20013;-78
2024/01/08 05:05:44;;;;;;;4.63;1.65;;;6.20;74.60;;;;;;6269906;28;20063;-77
2024/01/08 05:08:48;;;;;;;3.88;1.55;;;6.10;74.60;;;;;;6264719;28;20124;-76
2024/01/08 05:11:49;;;;;;;4.28;1.98;;;6.10;74.40;;;;;;6264732;28;20075;-77
2024/01/08 05:14:52;;;;;;;1.52;1.20;;;6.10;74.40;;;;;;6284886;28;20395;-77
2024/01/08 05:17:53;;;;;;;2.25;1.75;;;6.00;73.90;;;;;;6268328;28;20062;-78
2024/01/08 05:20:56;;;;;;;3.42;1.90;;;6.00;74.00;;;;;;6262056;28;20142;-78
2024/01/08 05:23:57;;;;;;;2.17;1.42;;;6.00;74.00;;;;;;6254547;28;20031;-77
2024/01/08 05:26:58;;;;;;;2.35;1.45;;;5.90;74.00;;;;;;6256039;28;20358;-77
2024/01/08 05:30:00;;;;;;;1.55;1.17;;;6.00;74.40;;;;;;6269113;28;20401;-75
2024/01/08 05:33:01;;;;;;;1.50;1.10;;;6.00;74.70;;;;;;6271039;28;20025;-77
2024/01/08 05:36:02;;;;;;;3.58;1.58;;;6.10;74.70;;;;;;6253026;28;20578;-78
2024/01/08 05:39:03;;;;;;;2.25;1.13;;;6.10;74.70;;;;;;6252372;28;20025;-77
2024/01/08 05:42:04;;;;;;;5.00;1.95;;;6.10;74.60;;;;;;6270654;28;20087;-77
2024/01/08 05:45:09;;;;;;;1.58;1.05;;;6.10;74.70;;;;;;6275092;28;20351;-76
2024/01/08 05:48:10;;;;;;;2.20;1.08;;;6.10;74.50;;;;;;6249175;28;20099;-78
2024/01/08 05:51:11;;;;;;;2.22;1.48;;;6.00;74.50;;;;;;6259385;28;20023;-77
2024/01/08 05:54:12;;;;;;;3.13;0.65;;;6.10;73.90;;;;;;6243967;28;20025;-76
2024/01/08 05:57:13;;;;;;;2.67;1.25;;;6.10;73.70;;;;;;6274515;28;20025;-78
2024/01/08 06:00:15;;;;;;;1.92;1.00;;;6.00;74.00;;;;;;6279043;28;20037;-77
2024/01/08 06:03:17;;;;;;;1.27;1.17;;;6.00;73.90;;;;;;6289034;28;20023;-77
2024/01/08 06:06:17;;;;;;;2.08;1.50;;;5.90;73.70;;;;;;6269325;28;20090;-78
2024/01/08 06:09:19;;;;;;;3.90;1.63;;;5.90;74.10;;;;;;6269678;28;20021;-77
2024/01/08 06:12:20;;;;;;;5.32;2.55;;;5.90;74.00;;;;;;6255496;28;20028;-76
2024/01/08 06:15:22;;;;;;;1.50;0.88;;;5.90;73.90;;;;;;6248426;28;20036;-79
2024/01/08 06:18:24;;;;;;;1.67;1.38;;;5.80;73.80;;;;;;6256446;28;20039;-77
2024/01/08 06:21:24;;;;;;;0.98;0.90;;;5.80;73.70;;;;;;6271394;28;20396;-77
2024/01/08 06:24:26;;;;;;;4.15;1.83;;;5.80;74.10;;;;;;6261986;28;20017;-76
2024/01/08 06:27:27;;;;;;;1.27;1.17;;;5.80;73.90;;;;;;6272836;28;20084;-79
2024/01/08 06:30:29;;;;;;;2.20;1.73;;;5.70;73.90;;;;;;6273944;28;20108;-76
2024/01/08 06:33:31;;;;;;;2.85;0.85;;;5.80;73.80;;;;;;6272410;28;20021;-76
2024/01/08 06:36:34;;;;;;;1.88;1.30;;;5.70;74.70;;;;;;6264643;28;20571;-78
2024/01/08 06:39:35;;;;;;;1.75;1.38;;;5.70;73.60;;;;;;6270824;28;20397;-77
2024/01/08 06:42:37;;;;;;;1.48;1.10;;;5.70;74.00;;;;;;6247035;28;20024;-77
2024/01/08 06:45:37;;;;;;;2.83;1.63;;;5.70;74.00;;;;;;6272397;28;20032;-77
2024/01/08 06:48:38;;;;;;;3.92;2.28;;;5.70;74.20;;;;;;6272466;28;20015;-78
2024/01/08 06:51:42;;;;;;;2.72;1.80;;;5.70;74.00;;;;;;6267146;28;20020;-76
2024/01/08 06:54:43;;;;;;;3.08;1.75;;;5.70;73.80;;;;;;6274442;28;20048;-77
2024/01/08 06:57:44;;;;;;;1.20;1.10;;;5.70;73.80;;;;;;6269826;28;20446;-78
2024/01/08 07:00:45;;;;;;;2.50;1.33;;;5.70;74.10;;;;;;6265970;28;20044;-77
2024/01/08 07:03:46;;;;;;;2.30;1.30;;;5.70;73.80;;;;;;6250860;28;21524;-78
2024/01/08 07:06:47;;;;;;;3.10;1.23;;;5.70;73.90;;;;;;6250546;28;20434;-77
2024/01/08 07:09:48;;;;;;;2.00;1.75;;;5.80;73.30;;;;;;6262164;28;20029;-77
2024/01/08 07:12:50;;;;;;;3.47;1.58;;;5.70;72.90;;;;;;6272143;28;20430;-77
2024/01/08 07:15:52;;;;;;;1.67;1.58;;;5.70;73.20;;;;;;6269701;28;20031;-77
2024/01/08 07:18:53;;;;;;;3.97;1.88;;;5.70;73.40;;;;;;6284730;28;20020;-77
2024/01/08 07:21:55;;;;;;;1.98;1.42;;;5.70;73.00;;;;;;6257171;28;20029;-77
2024/01/08 07:24:57;;;;;;;1.98;1.77;;;5.80;73.00;;;;;;6272296;28;20036;-79
2024/01/08 07:27:59;;;;;;;3.03;1.35;;;5.80;72.80;;;;;;6274622;28;20061;-77
2024/01/08 07:31:03;;;;;;;2.85;1.52;;;5.70;72.30;;;;;;6274465;28;20325;-78
2024/01/08 07:34:04;;;;;;;2.45;1.45;;;5.70;72.50;;;;;;6269383;28;20021;-78
2024/01/08 07:37:05;;;;;;;1.50;1.20;;;5.70;72.40;;;;;;6261778;28;20072;-78
2024/01/08 07:40:07;;;;;;;2.65;1.92;;;5.80;72.80;;;;;;6270351;28;20108;-80
2024/01/08 07:43:08;;;;;;;3.20;1.63;;;5.80;73.00;;;;;;6252252;28;20024;-79
2024/01/08 07:46:09;;;;;;;2.72;1.38;;;5.90;72.90;;;;;;6274547;28;20119;-79
2024/01/08 07:49:10;;;;;;;2.25;1.75;;;5.90;72.90;;;;;;6270460;28;20168;-77
2024/01/08 07:52:11;;;;;;;1.30;0.90;;;6.00;72.30;;;;;;6266493;28;20081;-78
2024/01/08 07:55:12;;;;;;;2.38;1.17;;;6.00;72.40;;;;;;6268219;28;20033;-77
2024/01/08 07:58:13;;;;;;;1.27;1.17;;;6.00;71.70;;;;;;6270937;28;20024;-75
2024/01/08 08:01:15;;;;;;;1.23;0.95;;;6.00;71.60;;;;;;6272469;28;20021;-76
2024/01/08 08:04:16;;;;;;;2.45;1.35;;;6.00;71.60;;;;;;6266165;28;20028;-79
2024/01/08 08:07:19;;;;;;;10.80;1.45;;;6.00;71.40;;;;;;6266646;28;20055;-77
2024/01/08 08:10:22;;;;;;;2.20;1.10;;;5.90;71.40;;;;;;6282826;28;20021;-78
2024/01/08 08:13:23;;;;;;;1.45;1.23;;;5.90;71.60;;;;;;6233109;28;20032;-78
2024/01/08 08:16:32;;;;;;;1.95;1.60;;;6.00;71.90;;;;;;6248987;28;20128;-78
2024/01/08 08:19:33;;;;;;;1.20;0.88;;;6.00;71.30;;;;;;6268365;28;20045;-77
2024/01/08 08:22:36;;;;;;;2.67;1.48;;;5.90;71.20;;;;;;6265098;28;20021;-79
2024/01/08 08:25:38;;;;;;;2.95;1.42;;;5.80;71.40;;;;;;6270861;28;20112;-78
2024/01/08 08:28:40;;;;;;;1.83;1.27;;;5.80;71.70;;;;;;6277131;28;20048;-77
2024/01/08 08:31:42;;;;;;;2.25;1.17;;;5.90;71.90;;;;;;6268550;28;20017;-76
2024/01/08 08:34:43;;;;;;;2.72;1.42;;;5.90;71.80;;;;;;6250512;28;20012;-78
2024/01/08 08:37:45;;;;;;;2.97;1.40;;;5.80;71.40;;;;;;6247591;28;20151;-77
2024/01/08 08:40:46;;;;;;;0.80;0.80;;;5.80;71.70;;;;;;6267568;28;20033;-77
2024/01/08 08:43:48;;;;;;;1.95;1.75;;;5.90;71.30;;;;;;6267032;28;20130;-77
2024/01/08 08:46:49;;;;;;;1.63;1.20;;;5.80;71.30;;;;;;6289462;28;20090;-77
2024/01/08 08:49:50;;;;;;;2.20;1.48;;;5.80;71.60;;;;;;6266355;28;20111;-76
2024/01/08 08:52:50;;;;;;;1.45;1.27;;;5.90;71.80;;;;;;6267713;28;20021;-78
2024/01/08 08:55:52;;;;;;;2.30;1.25;;;5.90;71.70;;;;;;6253567;28;20036;-78
2024/01/08 08:58:52;;;;;;;2.38;1.92;;;5.90;71.00;;;;;;6252504;28;20029;-77
2024/01/08 09:01:54;;;;;;;2.20;1.30;;;6.00;71.30;;;;;;6270175;28;20250;-79
2024/01/08 09:04:55;;;;;;;1.23;1.13;;;5.90;71.20;;;;;;6272616;28;20020;-78
2024/01/08 09:07:56;;;;;;;3.95;1.67;;;5.80;70.90;;;;;;6272544;28;20118;-77
2024/01/08 09:10:58;;;;;;;0.80;0.75;;;5.80;71.10;;;;;;6273062;28;20029;-78
2024/01/08 09:14:00;;;;;;;1.33;1.00;;;5.80;71.40;;;;;;6255137;28;20191;-80
2024/01/08 09:17:02;;;;;;;2.70;1.67;;;5.90;71.00;;;;;;6269892;28;20109;-78
2024/01/08 09:20:06;;;;;;;2.83;1.52;;;5.90;71.00;;;;;;6269656;28;20161;-79
2024/01/08 09:23:07;;;;;;;1.05;0.73;;;5.90;71.00;;;;;;6269852;28;20028;-78
2024/01/08 09:26:08;;;;;;;1.30;1.20;;;6.00;71.00;;;;;;6270002;28;20051;-79
2024/01/08 09:29:09;;;;;;;3.80;2.10;;;6.00;71.20;;;;;;6239902;28;20024;-77
2024/01/08 09:32:11;;;;;;;1.52;1.20;;;6.00;70.60;;;;;;6252732;28;20021;-76
2024/01/08 09:35:12;;;;;;;3.78;1.67;;;6.10;70.70;;;;;;6269599;28;20055;-78
2024/01/08 09:38:13;;;;;;;1.05;0.95;;;6.00;69.40;;;;;;6269701;28;20602;-79
2024/01/08 09:41:15;;;;;;;3.53;1.15;;;6.00;69.20;;;;;;6274558;28;20021;-77
2024/01/08 09:44:17;;;;;;;3.50;1.60;;;5.90;69.90;;;;;;6269498;28;20057;-77
2024/01/08 09:47:20;;;;;;;1.27;0.85;;;6.00;70.20;;;;;;6270417;28;20070;-79
2024/01/08 09:50:24;;;;;;;2.20;1.42;;;6.00;70.00;;;;;;6307555;28;20024;-79
2024/01/08 09:53:30;;;;;;;2.08;1.60;;;6.00;69.30;;;;;;6271515;28;20457;-78
2024/01/08 09:56:30;;;;;;;2.35;1.35;;;6.00;70.20;;;;;;6287111;28;20140;-80
2024/01/08 09:59:33;;;;;;;2.88;1.38;;;6.00;69.50;;;;;;6268456;28;20097;-77
2024/01/08 10:02:34;;;;;;;1.73;1.10;;;6.00;69.60;;;;;;6267786;28;20058;-78
2024/01/08 10:05:36;;;;;;;2.53;1.40;;;6.00;68.90;;;;;;6250422;28;20037;-77
2024/01/08 10:08:37;;;;;;;1.60;1.05;;;6.00;69.20;;;;;;6252661;28;20539;-79
2024/01/08 10:11:39;;;;;;;0.93;0.90;;;6.00;69.20;;;;;;6272320;28;20021;-76
2024/01/08 10:14:40;;;;;;;2.28;1.42;;;6.00;68.40;;;;;;6240120;28;20032;-77
2024/01/08 10:17:42;;;;;;;0.70;0.70;;;6.00;68.60;;;;;;6269079;28;20051;-78
2024/01/08 10:20:44;;;;;;;1.77;0.98;;;6.00;68.40;;;;;;6268411;28;20481;-78
2024/01/08 10:23:46;;;;;;;2.67;1.45;;;6.00;69.00;;;;;;6255595;28;20083;-78
2024/01/08 10:26:48;;;;;;;0.82;0.73;;;6.00;68.50;;;;;;6270785;28;20041;-78
2024/01/08 10:29:50;;;;;;;1.27;1.00;;;6.00;68.40;;;;;;6265208;28;20032;-78
2024/01/08 10:32:58;;;;;;;2.00;1.20;;;6.10;68.40;;;;;;6258672;28;20029;-78
2024/01/08 10:36:07;;;;;;;1.17;1.08;;;6.10;68.40;;;;;;6252218;28;20041;-77
2024/01/08 10:39:09;;;;;;;2.08;1.38;;;6.20;68.00;;;;;;6268195;28;20048;-78
2024/01/08 10:42:10;;;;;;;1.52;1.13;;;6.20;68.00;;;;;;6248695;28;20457;-77
2024/01/08 10:45:11;;;;;;;1.10;1.00;;;6.20;67.90;;;;;;6264748;28;20031;-78
2024/01/08 10:48:21;;;;;;;2.97;1.42;;;6.20;67.10;;;;;;6253925;28;20017;-78
2024/01/08 10:51:22;;;;;;;2.15;1.17;;;6.20;67.60;;;;;;6252846;28;20102;-77
2024/01/08 10:54:27;;;;;;;2.08;1.40;;;6.20;67.50;;;;;;6258460;28;20020;-78
2024/01/08 10:57:48;;;;;;;1.25;1.15;;;6.10;66.70;;;;;;6282823;28;20087;-78
2024/01/08 11:00:52;;;;;;;1.10;1.00;;;6.10;66.60;;;;;;6266720;28;20033;-78
2024/01/08 11:03:53;;;;;;;1.77;1.42;;;6.10;67.20;;;;;;6287571;28;20571;-77
2024/01/08 11:06:56;;;;;;;2.28;1.33;;;6.10;67.00;;;;;;6263451;28;20524;-78
2024/01/08 11:10:04;;;;;;;4.53;1.65;;;6.10;67.20;;;;;;6270124;28;20436;-77
2024/01/08 11:13:10;;;;;;;2.53;1.63;;;6.10;66.30;;;;;;6270687;28;20051;-79
2024/01/08 11:16:18;;;;;;;2.97;1.63;;;6.10;66.50;;;;;;6251200;28;20184;-78
2024/01/08 11:19:39;;;;;;;0.87;0.87;;;6.10;66.80;;;;;;6273798;28;20050;-77
2024/01/08 11:22:41;;;;;;;1.73;1.42;;;6.10;66.70;;;;;;6271880;28;20037;-76
2024/01/08 11:25:49;;;;;;;2.22;1.30;;;6.10;66.60;;;;;;6256178;28;20070;-80
2024/01/08 11:29:04;;;;;;;1.40;1.30;;;6.10;66.30;;;;;;6271379;28;20021;-79
2024/01/08 11:32:11;;;;;;;3.08;1.77;;;6.00;66.30;;;;;;6238612;28;20017;-79
2024/01/08 11:35:18;;;;;;;;;;;5.90;65.80;;;;;;6239073;28;20051;-78
2024/01/08 11:38:26;;;;;;;1.77;1.30;;;5.90;67.00;;;;;;6254203;28;19909;-78
2024/01/08 11:41:29;;;;;;;1.50;1.27;;;5.90;67.00;;;;;;6255487;28;20460;-78
2024/01/08 11:44:33;;;;;;;3.22;1.65;;;5.90;66.60;;;;;;6242515;28;20618;-79
2024/01/08 11:47:37;;;;;;;3.67;1.88;;;6.00;66.80;;;;;;6259518;28;20047;-79
2024/01/08 11:50:41;;;;;;;4.45;2.70;;;5.90;66.90;;;;;;6253915;28;20024;-78
2024/01/08 11:53:45;;;;;;;5.53;1.95;;;6.00;67.10;;;;;;6254462;28;20502;-80
2024/01/08 11:56:46;;;;;;;3.38;2.30;;;6.00;67.10;;;;;;6229355;28;20499;-78
2024/01/08 11:59:48;;;;;;;3.03;2.00;;;6.00;66.30;;;;;;6297462;28;20049;-77
2024/01/08 12:03:03;;;;;;;4.32;2.03;;;6.00;66.30;;;;;;6255096;28;20047;-79
2024/01/08 12:06:05;;;;;;;2.03;1.55;;;5.90;66.20;;;;;;6263807;28;20056;-78
2024/01/08 12:09:08;;;;;;;2.97;1.55;;;5.90;66.70;;;;;;6268433;28;20023;-79
2024/01/08 12:12:10;;;;;;;2.83;2.05;;;5.90;66.30;;;;;;6265764;28;20502;-79
2024/01/08 12:15:12;;;;;;;3.75;2.40;;;5.90;66.10;;;;;;6234402;28;20124;-78
2024/01/08 12:18:13;;;;;;;5.22;2.63;;;5.90;66.50;;;;;;6269125;28;20041;-79
2024/01/08 12:21:14;;;;;;;2.42;2.00;;;5.90;66.50;;;;;;6262858;28;20039;-79
2024/01/08 12:24:16;;;;;;;2.88;2.10;;;5.90;66.20;;;;;;6273142;28;20032;-79
2024/01/08 12:27:21;;;;;;;2.25;1.90;;;5.90;66.10;;;;;;6284440;28;20535;-79
2024/01/08 12:30:28;;;;;;;2.67;1.40;;;5.80;66.50;;;;;;6282499;28;20051;-78
2024/01/08 12:33:32;;;;;;;;;;;5.80;66.70;;;;;;6284063;28;20019;-79
2024/01/08 12:36:33;;;;;;;2.13;1.77;;;5.80;66.90;;;;;;6285468;28;20425;-79
2024/01/08 12:39:34;;;;;;;2.85;2.47;;;5.80;66.90;;;;;;6271978;28;20128;-78
2024/01/08 12:42:38;;;;;;;5.03;2.10;;;5.90;67.00;;;;;;6258464;28;20021;-76
2024/01/08 12:45:47;;;;;;;3.33;2.50;;;5.90;67.10;;;;;;6269871;28;20044;-77
2024/01/08 12:48:49;;;;;;;3.20;2.45;;;5.90;66.50;;;;;;6270654;28;20029;-78
2024/01/08 12:51:56;;;;;;;2.47;1.90;;;5.90;66.50;;;;;;6239954;28;20032;-78
2024/01/08 12:54:57;;;;;;;4.28;2.20;;;5.80;66.40;;;;;;6276894;28;20032;-78
2024/01/08 12:58:00;;;;;;;6.55;2.58;;;5.80;66.70;;;;;;6278692;28;20029;-79
2024/01/08 13:01:01;;;;;;;4.43;2.88;;;5.90;66.50;;;;;;6278630;28;20013;-79
2024/01/08 13:04:02;;;;;;;1.70;1.55;;;5.80;66.60;;;;;;6278305;28;20149;-78
2024/01/08 13:07:03;;;;;;;4.10;2.17;;;5.80;66.60;;;;;;6253574;28;20117;-79
2024/01/08 13:10:11;;;;;;;5.75;2.95;;;5.90;66.70;;;;;;6269228;28;20021;-79
2024/01/08 13:13:13;;;;;;;4.25;2.25;;;5.90;66.20;;;;;;6241793;28;20567;-77
2024/01/08 13:16:14;;;;;;;2.75;1.70;;;5.90;65.60;;;;;;6238752;28;20025;-78
2024/01/08 13:19:16;;;;;;;2.33;1.92;;;5.80;65.50;;;;;;6277912;28;20032;-79
2024/01/08 13:22:17;;;;;;;6.47;2.50;;;5.80;66.10;;;;;;6255989;28;20059;-77
2024/01/08 13:25:18;;;;;;;1.95;1.20;;;5.80;65.80;;;;;;6272803;28;20065;-78
2024/01/08 13:28:20;;;;;;;2.47;1.58;;;5.80;65.90;;;;;;6289887;28;20541;-77
2024/01/08 13:31:22;;;;;;;3.42;2.15;;;5.80;65.70;;;;;;6256743;28;20032;-79
2024/01/08 13:34:23;;;;;;;5.20;2.42;;;5.80;65.50;;;;;;6273104;28;20461;-78
2024/01/08 13:37:25;;;;;;;1.80;1.70;;;5.80;65.60;;;;;;6275337;28;20092;-79
2024/01/08 13:40:28;;;;;;;1.98;1.83;;;5.80;65.90;;;;;;6269391;28;20028;-79
2024/01/08 13:43:29;;;;;;;1.77;1.65;;;5.80;65.70;;;;;;6273033;28;20020;-78
2024/01/08 13:46:31;;;;;;;3.80;1.77;;;5.80;65.80;;;;;;6274323;28;20051;-79
2024/01/08 13:49:32;;;;;;;2.45;1.58;;;5.80;65.90;;;;;;6270284;28;20036;-79
2024/01/08 13:52:33;;;;;;;3.35;2.30;;;5.90;65.30;;;;;;6276529;28;20109;-77
2024/01/08 13:55:35;;;;;;;5.90;2.15;;;5.90;65.20;;;;;;6274371;28;20025;-78
2024/01/08 13:58:35;;;;;;;3.13;2.22;;;5.90;65.00;;;;;;6254472;28;20036;-78
2024/01/08 14:01:37;;;;;;;5.90;2.17;;;5.90;65.10;;;;;;6277996;28;20020;-78
2024/01/08 14:04:38;;;;;;;3.72;2.08;;;5.90;65.70;;;;;;6303285;28;20052;-79
2024/01/08 14:07:38;;;;;;;5.38;2.10;;;5.90;64.70;;;;;;6271579;28;20059;-78
2024/01/08 14:10:39;;;;;;;2.55;1.80;;;5.90;64.80;;;;;;6256603;28;20344;-78
2024/01/08 14:13:42;;;;;;;3.35;2.05;;;5.90;64.80;;;;;;6257999;28;20334;-79
2024/01/08 14:16:44;;;;;;;3.60;2.10;;;5.90;64.60;;;;;;6277409;28;20020;-79
2024/01/08 14:19:46;;;;;;;3.38;2.00;;;5.90;64.70;;;;;;6253208;28;20053;-77
2024/01/08 14:22:47;;;;;;;3.88;2.42;;;5.90;64.80;;;;;;6244153;28;20101;-79
2024/01/08 14:25:49;;;;;;;4.22;1.48;;;5.80;64.60;;;;;;6268495;28;20048;-79
2024/01/08 14:28:50;;;;;;;3.30;2.03;;;5.90;64.50;;;;;;6259238;28;20147;-78
2024/01/08 14:31:52;;;;;;;4.60;2.10;;;5.90;64.40;;;;;;6234544;28;20522;-78
2024/01/08 14:34:54;;;;;;;3.65;2.47;;;5.80;64.30;;;;;;6277679;28;20136;-78
2024/01/08 14:37:55;;;;;;;4.03;1.95;;;5.80;64.70;;;;;;6265417;28;20052;-77
2024/01/08 14:40:56;;;;;;;3.40;1.38;;;5.80;64.60;;;;;;6272183;28;20447;-79
2024/01/08 14:43:58;;;;;;;3.47;2.22;;;5.80;64.30;;;;;;6273392;28;20032;-79
2024/01/08 14:47:00;;;;;;;2.78;2.00;;;5.80;64.30;;;;;;6268195;28;20032;-80
2024/01/08 14:50:01;;;;;;;4.25;2.60;;;5.80;64.10;;;;;;6259799;28;20342;-77
2024/01/08 14:53:04;;;;;;;2.13;1.52;;;5.80;64.50;;;;;;6275117;28;20043;-78
2024/01/08 14:56:05;;;;;;;2.03;1.60;;;5.80;64.10;;;;;;6303001;28;20040;-79
2024/01/08 14:59:06;;;;;;;2.90;2.40;;;5.90;64.20;;;;;;6271881;28;20499;-79
2024/01/08 15:02:07;;;;;;;4.40;2.88;;;5.80;63.80;;;;;;6253032;28;20024;-78
2024/01/08 15:05:09;;;;;;;2.55;1.77;;;5.80;63.60;;;;;;6240871;28;20698;-76
2024/01/08 15:08:09;;;;;;;4.05;1.90;;;5.80;64.10;;;;;;6271982;28;20077;-78
2024/01/08 15:11:11;;;;;;;4.90;2.00;;;5.80;64.00;;;;;;6256545;28;20020;-79
2024/01/08 15:14:12;;;;;;;3.45;2.22;;;5.80;63.90;;;;;;6272190;28;20017;-77
2024/01/08 15:17:13;;;;;;;3.13;1.60;;;5.80;64.20;;;;;;6265181;28;20104;-77
2024/01/08 15:20:15;;;;;;;1.65;1.55;;;5.80;64.20;;;;;;6292466;28;20033;-78
2024/01/08 15:23:16;;;;;;;3.58;1.85;;;5.80;64.30;;;;;;6254033;28;20111;-77
2024/01/08 15:26:17;;;;;;;2.22;2.03;;;5.80;64.50;;;;;;6272945;28;20083;-79
2024/01/08 15:29:18;;;;;;;2.80;1.45;;;5.80;64.30;;;;;;6276232;28;20032;-77
2024/01/08 15:32:23;;;;;;;4.10;2.65;;;5.80;64.10;;;;;;6267051;28;20143;-78
2024/01/08 15:35:24;;;;;;;4.20;2.03;;;5.80;64.20;;;;;;6276287;28;20012;-77
2024/01/08 15:38:26;;;;;;;4.50;2.15;;;5.80;64.50;;;;;;6265551;28;21110;-78
2024/01/08 15:41:28;;;;;;;3.08;2.15;;;5.80;64.40;;;;;;6253980;28;20471;-77
2024/01/08 15:44:30;;;;;;;5.00;1.95;;;5.80;64.60;;;;;;6269570;28;20117;-77
2024/01/08 15:47:31;;;;;;;5.85;1.98;;;5.80;64.20;;;;;;6269628;28;20123;-80
2024/01/08 15:50:32;;;;;;;4.63;3.40;;;5.80;64.20;;;;;;6271020;28;20015;-78
2024/01/08 15:53:34;;;;;;;5.70;2.90;;;5.80;64.20;;;;;;6263377;28;20401;-77
2024/01/08 15:56:35;;;;;;;3.60;2.70;;;5.80;63.80;;;;;;6258090;28;20506;-77
2024/01/08 15:59:39;;;;;;;3.78;2.60;;;5.80;64.30;;;;;;6269686;28;20028;-79
2024/01/08 16:02:40;;;;;;;7.30;2.25;;;5.80;64.40;;;;;;6267251;28;20017;-78